Chokurdakh, Russia
Current Conditions -  °F | °C
As of 7:00 PM on Saturday 25 Oct 2014 (Local Time) from UHMM Reporting Station
Few Clouds Few Clouds  
Wind Chill: -8°   Ceiling: Unl
Heat Index:   Visibility: 6mi
Dew Point:   Wind: 4mph
Humidity: 92%   Direction: 60°ENE
Pressure: 29.71"   Gusts: NA
Location:  70.62°N, 147.87°E
Report Text: UHMM 250800Z 06002MPS 9999 FEW100 M17/M18 Q1006 NOSIG RMKQFE740 88850545
Loading
Personal Weather Stations






























Interactive Weather Map
Tropical Storm Tracking
New forecast layout! Learn more

10-Day Weather Forecast

Advertisements
Track Severe Weather on mobile